createdAt,value
2017-11-17T00:01:52.830Z,12.07
2017-11-17T00:04:19.221Z,11.92
2017-11-17T00:06:45.569Z,11.89
2017-11-17T00:09:12.001Z,11.97
2017-11-17T00:11:38.366Z,11.95
2017-11-17T00:14:04.719Z,11.97
2017-11-17T00:16:31.129Z,11.93
2017-11-17T00:18:57.477Z,11.90
2017-11-17T00:21:23.823Z,11.76
2017-11-17T00:23:50.320Z,11.28
2017-11-17T00:26:16.753Z,11.37
2017-11-17T00:28:43.109Z,11.53
2017-11-17T00:31:09.493Z,11.67
2017-11-17T00:33:35.885Z,11.62
2017-11-17T00:36:02.266Z,11.55
2017-11-17T00:38:28.690Z,11.75
2017-11-17T00:40:55.046Z,11.86
2017-11-17T00:43:21.428Z,11.93
2017-11-17T00:45:47.853Z,11.99
2017-11-17T00:48:14.209Z,12.04
2017-11-17T00:50:40.557Z,12.03
2017-11-17T00:53:06.949Z,11.97
2017-11-17T00:55:33.327Z,11.88
2017-11-17T00:57:59.680Z,11.88
2017-11-17T01:00:26.053Z,11.94
2017-11-17T01:02:52.404Z,11.91
2017-11-17T01:05:18.785Z,11.85
2017-11-17T01:07:45.167Z,11.78
2017-11-17T01:10:11.510Z,11.78
2017-11-17T01:12:37.881Z,11.78
2017-11-17T01:15:04.270Z,11.80
2017-11-17T01:17:30.645Z,11.80
2017-11-17T01:19:57.006Z,11.79
2017-11-17T01:22:23.490Z,11.84
2017-11-17T01:24:49.862Z,11.92
2017-11-17T01:27:16.223Z,11.87
2017-11-17T01:29:42.656Z,11.85
2017-11-17T01:32:09.026Z,11.87
2017-11-17T01:34:35.378Z,11.95
2017-11-17T01:37:01.790Z,12.01
2017-11-17T01:39:28.161Z,12.04
2017-11-17T01:41:54.506Z,12.00
2017-11-17T01:44:20.954Z,11.99
2017-11-17T01:46:47.412Z,12.03
2017-11-17T01:49:13.802Z,12.04
2017-11-17T01:51:40.193Z,12.02
2017-11-17T01:54:06.618Z,12.00
2017-11-17T01:56:33.041Z,12.02
2017-11-17T01:58:59.492Z,11.95
2017-11-17T02:01:25.885Z,11.82
2017-11-17T02:03:52.445Z,11.57
2017-11-17T02:06:18.884Z,11.51
2017-11-17T02:08:45.946Z,11.58
2017-11-17T02:11:12.358Z,11.61
2017-11-17T02:13:38.774Z,11.71
2017-11-17T02:16:05.157Z,11.75
2017-11-17T02:18:31.561Z,11.80
2017-11-17T02:20:58.065Z,11.87
2017-11-17T02:23:24.541Z,11.89
2017-11-17T02:25:50.962Z,11.98
2017-11-17T02:28:17.502Z,12.03
2017-11-17T02:30:43.933Z,12.08
2017-11-17T02:33:10.328Z,12.03
2017-11-17T02:35:36.833Z,11.96
2017-11-17T02:38:03.330Z,11.85
2017-11-17T02:40:29.769Z,11.90
2017-11-17T02:42:56.245Z,11.97
2017-11-17T02:45:22.733Z,12.00
2017-11-17T02:47:49.183Z,11.98
2017-11-17T02:50:15.647Z,11.96
2017-11-17T02:52:42.104Z,11.93
2017-11-17T02:55:08.578Z,11.75
2017-11-17T02:57:35.025Z,11.76
2017-11-17T03:00:01.470Z,11.78
2017-11-17T03:02:27.893Z,11.70
2017-11-17T03:04:54.335Z,11.65
2017-11-17T03:07:20.700Z,11.56
2017-11-17T03:09:47.122Z,11.62
2017-11-17T03:12:13.637Z,11.72
2017-11-17T03:14:40.113Z,11.80
2017-11-17T03:17:06.542Z,11.78
2017-11-17T03:19:32.981Z,11.82
2017-11-17T03:21:59.389Z,11.87
2017-11-17T03:24:25.794Z,11.83
2017-11-17T03:26:52.310Z,11.83
2017-11-17T03:29:18.788Z,11.85
2017-11-17T03:31:45.193Z,11.88
2017-11-17T03:34:11.634Z,11.87
2017-11-17T03:36:38.017Z,11.84
2017-11-17T03:39:04.417Z,11.82
2017-11-17T03:41:30.873Z,11.90
2017-11-17T03:43:57.335Z,11.84
2017-11-17T03:46:23.713Z,11.75
2017-11-17T03:48:50.137Z,11.78
2017-11-17T03:51:16.493Z,11.84
2017-11-17T03:53:42.862Z,11.68
2017-11-17T03:56:09.274Z,11.38
2017-11-17T03:58:35.645Z,11.52
2017-11-17T04:01:02.162Z,11.53
2017-11-17T04:03:28.704Z,11.51
2017-11-17T04:05:55.113Z,11.51
2017-11-17T04:08:21.517Z,11.56
2017-11-17T04:10:47.947Z,11.56
2017-11-17T04:13:14.392Z,11.56
2017-11-17T04:15:40.784Z,11.66
2017-11-17T04:18:07.198Z,11.66
2017-11-17T04:20:33.613Z,11.59
2017-11-17T04:23:00.014Z,11.60
2017-11-17T04:25:26.597Z,11.64
2017-11-17T04:27:52.966Z,11.67
2017-11-17T04:30:19.394Z,11.71
2017-11-17T04:32:45.842Z,11.76
2017-11-17T04:35:12.257Z,11.67
2017-11-17T04:37:38.637Z,11.65
2017-11-17T04:40:05.062Z,11.75
2017-11-17T04:42:31.452Z,11.62
2017-11-17T04:44:57.826Z,11.59
2017-11-17T04:47:24.258Z,11.45
2017-11-17T04:49:50.662Z,11.49
2017-11-17T04:52:17.036Z,11.50
2017-11-17T04:54:43.496Z,11.60
2017-11-17T04:57:09.881Z,11.55
2017-11-17T04:59:36.252Z,11.65
2017-11-17T05:02:02.661Z,11.81
2017-11-17T05:04:29.041Z,11.89
2017-11-17T05:06:55.465Z,11.92
2017-11-17T05:09:21.918Z,11.92
2017-11-17T05:11:48.327Z,11.78
2017-11-17T05:14:14.709Z,11.78
2017-11-17T05:16:41.121Z,11.83
2017-11-17T05:19:07.537Z,11.83
2017-11-17T05:21:33.876Z,11.80
2017-11-17T05:24:00.277Z,11.84
2017-11-17T05:26:26.614Z,11.87
2017-11-17T05:28:52.945Z,11.89
2017-11-17T05:31:19.353Z,11.92
2017-11-17T05:33:45.746Z,11.91
2017-11-17T05:36:12.086Z,11.82
2017-11-17T05:38:38.486Z,11.76
2017-11-17T05:41:04.830Z,11.80
2017-11-17T05:43:31.336Z,11.93
2017-11-17T05:45:57.770Z,11.97
2017-11-17T05:48:24.116Z,11.99
2017-11-17T05:50:50.458Z,11.80
2017-11-17T05:53:16.845Z,11.81
2017-11-17T05:55:43.194Z,11.84
2017-11-17T05:58:09.541Z,11.89
2017-11-17T06:00:35.927Z,11.89
2017-11-17T06:03:02.315Z,11.90
2017-11-17T06:05:28.681Z,11.90
2017-11-17T06:07:55.107Z,11.94
2017-11-17T06:10:21.473Z,12.08
2017-11-17T06:12:47.938Z,12.10
2017-11-17T06:15:14.362Z,12.10
2017-11-17T06:17:40.726Z,11.97
2017-11-17T06:20:07.376Z,11.85
2017-11-17T06:22:33.859Z,11.88
2017-11-17T06:25:00.249Z,11.88
2017-11-17T06:27:26.622Z,11.88
2017-11-17T06:29:53.158Z,11.89
2017-11-17T06:32:19.516Z,11.90
2017-11-17T06:34:45.908Z,11.91
2017-11-17T06:37:12.293Z,11.94
2017-11-17T06:39:38.642Z,11.95
2017-11-17T06:42:04.993Z,11.91
2017-11-17T06:44:32.140Z,11.90
2017-11-17T06:46:58.714Z,11.92
2017-11-17T06:49:25.057Z,11.96
2017-11-17T06:51:51.777Z,12.05
2017-11-17T06:54:18.209Z,12.10
2017-11-17T06:56:44.589Z,12.07
2017-11-17T06:59:11.053Z,12.06
2017-11-17T07:01:37.464Z,12.12
2017-11-17T07:04:03.834Z,12.18
2017-11-17T07:06:30.262Z,12.12
2017-11-17T07:08:56.637Z,12.12
2017-11-17T07:11:23.010Z,12.10
2017-11-17T07:13:49.471Z,12.10
2017-11-17T07:16:15.965Z,11.99
2017-11-17T07:18:42.335Z,11.86
2017-11-17T07:21:08.836Z,11.80
2017-11-17T07:23:35.221Z,11.80
2017-11-17T07:26:01.675Z,11.88
2017-11-17T07:28:28.106Z,12.02
2017-11-17T07:30:54.469Z,11.88
2017-11-17T07:33:20.990Z,11.89
2017-11-17T07:35:47.449Z,11.87
2017-11-17T07:38:13.809Z,11.99
2017-11-17T07:40:40.149Z,11.97
2017-11-17T07:43:06.546Z,11.88
2017-11-17T07:45:32.945Z,11.82
2017-11-17T07:47:59.313Z,11.89
2017-11-17T07:50:25.738Z,12.00
2017-11-17T07:52:52.210Z,12.06
2017-11-17T07:55:19.385Z,12.07
2017-11-17T07:57:45.961Z,12.16
2017-11-17T08:00:12.333Z,11.80
2017-11-17T08:02:38.673Z,11.91
2017-11-17T08:05:05.098Z,11.97
2017-11-17T08:07:31.442Z,11.90
2017-11-17T08:09:58.298Z,11.76
2017-11-17T08:12:24.777Z,11.84
2017-11-17T08:14:51.149Z,11.75
2017-11-17T08:17:23.653Z,11.90
2017-11-17T08:19:50.215Z,12.04
2017-11-17T08:22:16.594Z,12.03
2017-11-17T08:24:42.977Z,12.06
2017-11-17T08:27:09.593Z,12.17
2017-11-17T08:29:36.444Z,12.31
2017-11-17T08:32:02.948Z,12.43
2017-11-17T08:34:29.421Z,12.49
2017-11-17T08:36:55.798Z,12.55
2017-11-17T08:39:22.257Z,12.52
2017-11-17T08:42:04.900Z,12.51
2017-11-17T09:19:25.429Z,12.08
2017-11-17T09:22:06.957Z,12.26
2017-11-17T09:24:52.739Z,12.31
2017-11-17T09:44:01.609Z,12.44
2017-11-17T10:08:42.581Z,12.78
2017-11-17T10:35:28.183Z,12.03
2017-11-17T10:37:54.618Z,12.20
2017-11-17T10:40:21.041Z,12.28
2017-11-17T10:42:47.490Z,12.43
2017-11-17T10:45:13.906Z,12.57
2017-11-17T10:47:40.618Z,12.65
2017-11-17T10:50:07.127Z,12.66
2017-11-17T10:52:33.573Z,12.73
2017-11-17T10:55:00.026Z,12.78
2017-11-17T10:57:26.619Z,12.59
2017-11-17T10:59:53.242Z,12.58
2017-11-17T11:02:19.721Z,12.64
2017-11-17T11:04:46.227Z,12.69
2017-11-17T11:07:12.749Z,12.59
2017-11-17T11:09:39.431Z,12.66
2017-11-17T11:12:05.967Z,12.73
2017-11-17T11:14:32.382Z,12.75
2017-11-17T11:16:59.090Z,12.85
2017-11-17T11:19:25.778Z,12.93
2017-11-17T11:21:52.194Z,12.86
2017-11-17T11:24:18.626Z,12.72
2017-11-17T11:26:45.057Z,12.49
2017-11-17T11:29:11.642Z,12.54
2017-11-17T11:31:38.041Z,12.59
2017-11-17T11:34:04.561Z,12.61
2017-11-17T11:36:31.529Z,12.70
2017-11-17T11:38:57.933Z,12.66
2017-11-17T11:41:24.317Z,12.44
2017-11-17T11:43:50.757Z,12.48
2017-11-17T11:46:17.245Z,12.44
2017-11-17T11:48:43.695Z,12.47
2017-11-17T11:51:10.065Z,12.40
2017-11-17T11:53:36.466Z,12.45
2017-11-17T11:56:02.983Z,12.54
2017-11-17T11:58:29.406Z,12.59
2017-11-17T12:00:55.860Z,12.65
2017-11-17T12:03:22.318Z,12.68
2017-11-17T12:05:48.709Z,12.73
2017-11-17T12:08:15.165Z,12.78
2017-11-17T12:10:41.565Z,12.79
2017-11-17T12:13:07.947Z,12.69
2017-11-17T12:15:34.306Z,12.70
2017-11-17T12:18:00.790Z,12.66
2017-11-17T12:20:27.178Z,12.66
2017-11-17T12:22:53.590Z,12.73
2017-11-17T12:25:20.627Z,12.71
2017-11-17T12:27:47.446Z,12.73
2017-11-17T12:30:13.855Z,12.73
2017-11-17T12:32:40.271Z,12.83
2017-11-17T12:35:06.746Z,12.88
2017-11-17T12:37:33.154Z,12.87
2017-11-17T12:39:59.562Z,12.88
2017-11-17T12:42:25.965Z,12.74
2017-11-17T12:44:52.330Z,12.73
2017-11-17T12:47:18.745Z,12.60
2017-11-17T12:49:45.097Z,12.60
2017-11-17T12:52:11.469Z,12.60
2017-11-17T12:54:37.889Z,12.65
2017-11-17T12:57:04.270Z,12.63
2017-11-17T12:59:32.510Z,12.69
2017-11-17T13:01:58.916Z,12.74
2017-11-17T13:04:25.325Z,12.80
2017-11-17T14:57:00.795Z,12.88
2017-11-17T14:59:27.402Z,12.95
2017-11-17T15:01:53.941Z,12.98
2017-11-17T15:04:20.442Z,12.93
2017-11-17T15:06:46.835Z,12.87
2017-11-17T15:09:13.547Z,12.84
2017-11-17T15:11:40.185Z,12.84
2017-11-17T15:14:06.590Z,12.84
2017-11-17T15:16:33.153Z,12.79
2017-11-17T15:18:59.665Z,12.80
2017-11-17T15:21:26.110Z,12.78
2017-11-17T15:23:52.569Z,12.66
2017-11-17T15:26:19.192Z,12.59
2017-11-17T15:28:45.635Z,12.65
2017-11-17T15:31:12.169Z,12.57
2017-11-17T15:33:38.739Z,12.61
2017-11-17T15:36:05.986Z,12.62
2017-11-17T15:38:32.587Z,12.61
2017-11-17T15:40:59.377Z,12.64
2017-11-17T15:43:25.898Z,12.65
2017-11-17T15:45:52.502Z,12.64
2017-11-17T15:48:21.103Z,12.70
2017-11-17T15:50:47.901Z,12.73
2017-11-17T15:53:14.389Z,12.71
2017-11-17T15:55:40.942Z,12.69
2017-11-17T15:58:07.338Z,12.68
2017-11-17T16:00:33.873Z,12.74
2017-11-17T16:03:00.338Z,12.78
2017-11-17T16:05:26.888Z,12.78
2017-11-17T16:07:53.374Z,12.78
2017-11-17T16:10:19.838Z,12.81
2017-11-17T16:12:46.294Z,12.80
2017-11-17T16:15:12.720Z,12.80
2017-11-17T16:17:39.250Z,12.81
2017-11-17T16:20:05.818Z,12.83
2017-11-17T16:22:32.306Z,12.89
2017-11-17T16:24:58.775Z,12.89
2017-11-17T16:27:25.256Z,12.88
2017-11-17T16:29:51.772Z,12.81
2017-11-17T16:32:18.294Z,12.86
2017-11-17T16:34:44.775Z,12.89
2017-11-17T16:37:11.217Z,12.95
2017-11-17T16:39:37.654Z,13.05
2017-11-17T16:42:04.286Z,13.08
2017-11-17T16:44:30.766Z,13.09
2017-11-17T16:46:57.258Z,13.07
2017-11-17T16:49:23.763Z,12.97
2017-11-17T16:51:50.241Z,12.95
2017-11-17T16:54:16.782Z,12.98
2017-11-17T16:56:43.189Z,13.00
2017-11-17T16:59:09.629Z,13.03
2017-11-17T17:01:36.106Z,13.04
2017-11-17T17:04:02.570Z,13.01
2017-11-17T17:06:29.006Z,13.02
2017-11-17T17:08:55.819Z,13.01
2017-11-17T17:11:22.334Z,13.06
2017-11-17T17:13:48.740Z,13.04
2017-11-17T17:16:15.187Z,12.97
2017-11-17T17:18:41.618Z,12.92
2017-11-17T17:21:09.144Z,12.87
2017-11-17T17:23:36.662Z,12.97
2017-11-17T17:26:03.227Z,13.07
2017-11-17T17:28:29.661Z,13.13
2017-11-17T17:30:56.200Z,13.11
2017-11-17T17:33:22.608Z,13.07
2017-11-17T17:35:48.982Z,13.11
2017-11-17T17:38:15.497Z,13.16
2017-11-17T17:40:41.862Z,13.18
2017-11-17T17:43:08.283Z,13.09
2017-11-17T17:45:34.742Z,13.07
2017-11-17T17:48:01.168Z,13.10
2017-11-17T17:50:27.755Z,13.13
2017-11-17T17:52:54.422Z,13.17
2017-11-17T17:55:20.954Z,13.19
2017-11-17T17:57:47.682Z,13.19
2017-11-17T18:00:14.701Z,13.24
2017-11-17T18:02:41.218Z,13.26
2017-11-17T18:05:07.661Z,13.25
2017-11-17T18:07:34.165Z,13.23
2017-11-17T18:10:00.617Z,13.19
2017-11-17T18:12:27.081Z,13.10
2017-11-17T18:14:53.641Z,13.18
2017-11-17T18:17:20.068Z,13.23
2017-11-17T18:19:46.666Z,13.19
2017-11-17T18:22:13.170Z,13.17
2017-11-17T18:24:39.621Z,13.15
2017-11-17T18:27:06.058Z,13.19
2017-11-17T18:29:32.549Z,13.17
2017-11-17T18:31:59.087Z,13.16
2017-11-17T18:34:25.793Z,13.16
2017-11-17T18:36:52.348Z,13.20
2017-11-17T18:39:20.942Z,13.23
2017-11-17T18:41:47.423Z,13.24
2017-11-17T18:44:13.857Z,13.07
2017-11-17T18:46:41.371Z,13.04
2017-11-17T18:49:07.743Z,13.13
2017-11-17T18:51:34.206Z,13.15
2017-11-17T18:54:00.718Z,13.15
2017-11-17T18:56:27.214Z,13.16
2017-11-17T18:58:53.700Z,13.14
2017-11-17T19:01:20.088Z,13.17
2017-11-17T19:03:46.483Z,13.12
2017-11-17T19:06:12.972Z,13.09
2017-11-17T19:08:39.454Z,13.12
2017-11-17T19:11:05.871Z,13.09
2017-11-17T19:13:32.319Z,13.10
2017-11-17T19:15:58.698Z,13.11
2017-11-17T19:18:25.202Z,13.13
2017-11-17T19:20:51.652Z,13.15
2017-11-17T19:23:18.171Z,13.09
2017-11-17T19:25:45.403Z,13.09
2017-11-17T19:28:11.830Z,13.09
2017-11-17T19:30:38.392Z,13.14
2017-11-17T19:33:04.798Z,13.14
2017-11-17T19:35:31.210Z,13.09
2017-11-17T19:37:57.694Z,13.04
2017-11-17T19:40:24.099Z,13.01
2017-11-17T19:42:50.546Z,12.98
2017-11-17T19:45:17.873Z,12.97
2017-11-17T19:47:44.294Z,13.00
2017-11-17T19:50:10.745Z,12.96
2017-11-17T19:52:37.420Z,12.99
2017-11-17T19:55:05.168Z,12.97
2017-11-17T19:57:31.589Z,12.94
2017-11-17T19:59:58.813Z,12.83
2017-11-17T20:02:26.093Z,12.88
2017-11-17T20:04:52.606Z,12.90
2017-11-17T20:07:19.016Z,12.92
2017-11-17T20:09:45.378Z,12.89
2017-11-17T20:12:11.846Z,12.90
2017-11-17T20:14:38.233Z,12.90
2017-11-17T20:17:04.646Z,12.88
2017-11-17T20:19:31.154Z,12.88
2017-11-17T20:21:59.471Z,12.88
2017-11-17T20:24:25.913Z,12.87
2017-11-17T20:26:52.324Z,12.84
2017-11-17T20:29:18.723Z,12.79
2017-11-17T20:31:45.901Z,12.77
2017-11-17T20:34:12.330Z,12.74
2017-11-17T20:36:38.695Z,12.72
2017-11-17T20:39:05.075Z,12.72
2017-11-17T20:41:33.143Z,12.68
2017-11-17T20:43:59.538Z,12.66
2017-11-17T20:46:25.918Z,12.72
2017-11-17T20:48:52.318Z,12.72
2017-11-17T20:51:18.681Z,12.74
2017-11-17T20:53:45.084Z,12.71
2017-11-17T20:56:11.545Z,12.75
2017-11-17T20:58:38.053Z,12.74
2017-11-17T21:01:04.463Z,12.76
2017-11-17T21:03:30.962Z,12.71
2017-11-17T21:05:57.364Z,12.67
2017-11-17T21:08:23.774Z,12.70
2017-11-17T21:10:50.221Z,12.67
2017-11-17T21:13:16.625Z,12.64
2017-11-17T21:15:43.017Z,12.57
2017-11-17T21:18:09.479Z,12.52
2017-11-17T21:20:36.802Z,12.53
2017-11-17T21:23:03.178Z,12.47
2017-11-17T21:25:29.613Z,12.46
2017-11-17T21:27:56.001Z,12.48
2017-11-17T21:30:22.542Z,12.50
2017-11-17T21:32:48.994Z,12.51
2017-11-17T21:35:15.533Z,12.50
2017-11-17T21:37:41.908Z,12.51
2017-11-17T21:40:08.342Z,12.50
2017-11-17T21:42:34.731Z,12.56
2017-11-17T21:45:01.101Z,12.55
2017-11-17T21:47:27.534Z,12.54
2017-11-17T21:49:53.983Z,12.51
2017-11-17T21:52:20.429Z,12.50
2017-11-17T21:54:46.818Z,12.57
2017-11-17T21:57:13.300Z,12.58
2017-11-17T21:59:39.769Z,12.58
2017-11-17T22:02:06.295Z,12.51
2017-11-17T22:04:32.846Z,12.41
2017-11-17T22:06:59.218Z,12.38
2017-11-17T22:09:25.625Z,12.38
2017-11-17T22:11:52.079Z,12.38
2017-11-17T22:14:18.614Z,12.42
2017-11-17T22:16:45.027Z,12.43
2017-11-17T22:19:11.575Z,12.41
2017-11-17T22:21:38.046Z,12.40
2017-11-17T22:24:04.509Z,12.41
2017-11-17T22:26:30.904Z,12.35
2017-11-17T22:28:57.314Z,12.32
2017-11-17T22:31:23.738Z,12.32
2017-11-17T22:33:50.146Z,12.24
2017-11-17T22:36:16.541Z,12.30
2017-11-17T22:38:43.076Z,12.34
2017-11-17T22:41:09.547Z,12.39
2017-11-17T22:43:35.994Z,12.35
2017-11-17T22:46:02.406Z,12.34
2017-11-17T22:48:28.847Z,12.15
2017-11-17T22:50:55.231Z,12.09
2017-11-17T22:53:21.727Z,12.04
2017-11-17T22:55:48.133Z,12.11
2017-11-17T22:58:14.515Z,12.18
2017-11-17T23:00:41.069Z,12.23
2017-11-17T23:03:07.383Z,12.25
2017-11-17T23:05:33.850Z,12.23
2017-11-17T23:08:00.406Z,12.27
2017-11-17T23:10:26.753Z,12.31
2017-11-17T23:12:53.107Z,12.34
2017-11-17T23:15:19.622Z,12.30
2017-11-17T23:17:45.998Z,12.31
2017-11-17T23:20:12.439Z,12.34
2017-11-17T23:22:38.835Z,12.30
2017-11-17T23:25:05.185Z,12.24
2017-11-17T23:27:31.551Z,12.14
2017-11-17T23:29:57.966Z,12.19
2017-11-17T23:32:24.325Z,12.21
2017-11-17T23:34:50.774Z,12.19
2017-11-17T23:37:17.202Z,12.14
2017-11-17T23:39:43.595Z,12.11
2017-11-17T23:42:09.977Z,12.13
2017-11-17T23:44:36.450Z,12.18
2017-11-17T23:47:02.833Z,12.19
2017-11-17T23:49:29.210Z,12.18
2017-11-17T23:51:55.659Z,12.19
2017-11-17T23:54:22.110Z,12.15
2017-11-17T23:56:48.478Z,12.13
2017-11-17T23:59:14.909Z,12.07
